sensor_id;sensor_type;location;lat;lon;timestamp;P1;durP1;ratioP1;P2;durP2;ratioP2
77507;SDS011;66618;42.666;23.360;2023-04-24T00:00:19;10.23;;;6.22;;
77507;SDS011;66618;42.666;23.360;2023-04-24T00:02:45;11.02;;;6.05;;
77507;SDS011;66618;42.666;23.360;2023-04-24T00:05:12;11.10;;;6.28;;
77507;SDS011;66618;42.666;23.360;2023-04-24T00:07:41;10.15;;;6.13;;
77507;SDS011;66618;42.666;23.360;2023-04-24T00:10:07;9.57;;;4.93;;
77507;SDS011;66618;42.666;23.360;2023-04-24T00:12:33;8.18;;;5.80;;
77507;SDS011;66618;42.666;23.360;2023-04-24T00:14:58;9.55;;;5.18;;
77507;SDS011;66618;42.666;23.360;2023-04-24T00:17:23;7.50;;;5.25;;
77507;SDS011;66618;42.666;23.360;2023-04-24T00:19:49;7.18;;;4.70;;
77507;SDS011;66618;42.666;23.360;2023-04-24T00:22:23;6.25;;;4.40;;
77507;SDS011;66618;42.666;23.360;2023-04-24T00:24:49;7.38;;;4.38;;
77507;SDS011;66618;42.666;23.360;2023-04-24T00:27:14;6.53;;;4.63;;
77507;SDS011;66618;42.666;23.360;2023-04-24T00:29:40;6.18;;;4.20;;
77507;SDS011;66618;42.666;23.360;2023-04-24T00:32:05;7.28;;;4.35;;
77507;SDS011;66618;42.666;23.360;2023-04-24T00:34:31;6.38;;;3.90;;
77507;SDS011;66618;42.666;23.360;2023-04-24T00:36:57;6.30;;;4.30;;
77507;SDS011;66618;42.666;23.360;2023-04-24T00:39:22;4.97;;;3.80;;
77507;SDS011;66618;42.666;23.360;2023-04-24T00:41:48;9.13;;;4.35;;
77507;SDS011;66618;42.666;23.360;2023-04-24T00:44:14;8.20;;;4.72;;
77507;SDS011;66618;42.666;23.360;2023-04-24T00:46:39;7.85;;;4.93;;
77507;SDS011;66618;42.666;23.360;2023-04-24T00:49:05;6.45;;;4.40;;
77507;SDS011;66618;42.666;23.360;2023-04-24T00:51:31;6.75;;;4.55;;
77507;SDS011;66618;42.666;23.360;2023-04-24T00:53:57;10.18;;;4.70;;
77507;SDS011;66618;42.666;23.360;2023-04-24T00:56:23;7.38;;;4.53;;
77507;SDS011;66618;42.666;23.360;2023-04-24T00:58:49;6.35;;;4.40;;
77507;SDS011;66618;42.666;23.360;2023-04-24T01:01:14;8.30;;;5.00;;
77507;SDS011;66618;42.666;23.360;2023-04-24T01:03:40;6.97;;;4.70;;
77507;SDS011;66618;42.666;23.360;2023-04-24T01:06:06;8.13;;;4.43;;
77507;SDS011;66618;42.666;23.360;2023-04-24T01:08:31;6.60;;;4.43;;
77507;SDS011;66618;42.666;23.360;2023-04-24T01:10:57;7.28;;;4.85;;
77507;SDS011;66618;42.666;23.360;2023-04-24T01:13:23;6.72;;;4.40;;
77507;SDS011;66618;42.666;23.360;2023-04-24T01:15:49;8.75;;;5.00;;
77507;SDS011;66618;42.666;23.360;2023-04-24T01:18:14;8.45;;;5.13;;
77507;SDS011;66618;42.666;23.360;2023-04-24T01:20:40;8.05;;;4.40;;
77507;SDS011;66618;42.666;23.360;2023-04-24T01:23:07;7.43;;;4.85;;
77507;SDS011;66618;42.666;23.360;2023-04-24T01:25:33;8.82;;;4.85;;
77507;SDS011;66618;42.666;23.360;2023-04-24T01:27:59;7.05;;;5.13;;
77507;SDS011;66618;42.666;23.360;2023-04-24T01:30:24;6.05;;;4.07;;
77507;SDS011;66618;42.666;23.360;2023-04-24T01:32:50;6.63;;;5.13;;
77507;SDS011;66618;42.666;23.360;2023-04-24T01:35:16;10.63;;;5.88;;
77507;SDS011;66618;42.666;23.360;2023-04-24T01:37:42;9.98;;;5.03;;
77507;SDS011;66618;42.666;23.360;2023-04-24T01:40:07;8.27;;;4.88;;
77507;SDS011;66618;42.666;23.360;2023-04-24T01:42:34;11.52;;;4.90;;
77507;SDS011;66618;42.666;23.360;2023-04-24T01:44:59;6.75;;;4.93;;
77507;SDS011;66618;42.666;23.360;2023-04-24T01:47:28;8.68;;;5.20;;
77507;SDS011;66618;42.666;23.360;2023-04-24T01:49:55;7.18;;;5.43;;
77507;SDS011;66618;42.666;23.360;2023-04-24T01:52:20;7.22;;;5.07;;
77507;SDS011;66618;42.666;23.360;2023-04-24T01:54:46;8.85;;;5.00;;
77507;SDS011;66618;42.666;23.360;2023-04-24T01:57:12;7.95;;;5.30;;
77507;SDS011;66618;42.666;23.360;2023-04-24T01:59:39;8.98;;;5.28;;
77507;SDS011;66618;42.666;23.360;2023-04-24T02:02:04;7.57;;;5.45;;
77507;SDS011;66618;42.666;23.360;2023-04-24T02:04:29;6.63;;;4.93;;
77507;SDS011;66618;42.666;23.360;2023-04-24T02:06:55;8.27;;;5.22;;
77507;SDS011;66618;42.666;23.360;2023-04-24T02:09:20;9.10;;;5.35;;
77507;SDS011;66618;42.666;23.360;2023-04-24T02:11:46;9.27;;;5.90;;
77507;SDS011;66618;42.666;23.360;2023-04-24T02:14:11;8.60;;;5.32;;
77507;SDS011;66618;42.666;23.360;2023-04-24T02:16:37;8.77;;;5.72;;
77507;SDS011;66618;42.666;23.360;2023-04-24T02:19:02;8.57;;;5.50;;
77507;SDS011;66618;42.666;23.360;2023-04-24T02:21:28;7.30;;;5.07;;
77507;SDS011;66618;42.666;23.360;2023-04-24T02:23:54;11.68;;;5.90;;
77507;SDS011;66618;42.666;23.360;2023-04-24T02:26:19;7.75;;;5.38;;
77507;SDS011;66618;42.666;23.360;2023-04-24T02:28:45;7.30;;;5.25;;
77507;SDS011;66618;42.666;23.360;2023-04-24T02:31:10;10.07;;;5.43;;
77507;SDS011;66618;42.666;23.360;2023-04-24T02:33:35;7.75;;;5.40;;
77507;SDS011;66618;42.666;23.360;2023-04-24T02:36:01;8.70;;;6.18;;
77507;SDS011;66618;42.666;23.360;2023-04-24T02:38:27;9.45;;;6.00;;
77507;SDS011;66618;42.666;23.360;2023-04-24T02:40:53;8.25;;;6.05;;
77507;SDS011;66618;42.666;23.360;2023-04-24T02:43:19;9.40;;;5.80;;
77507;SDS011;66618;42.666;23.360;2023-04-24T02:45:45;11.20;;;6.43;;
77507;SDS011;66618;42.666;23.360;2023-04-24T02:48:10;9.02;;;6.07;;
77507;SDS011;66618;42.666;23.360;2023-04-24T02:50:36;9.73;;;5.90;;
77507;SDS011;66618;42.666;23.360;2023-04-24T02:53:01;8.77;;;5.78;;
77507;SDS011;66618;42.666;23.360;2023-04-24T02:55:26;9.82;;;6.40;;
77507;SDS011;66618;42.666;23.360;2023-04-24T02:57:52;12.32;;;6.68;;
77507;SDS011;66618;42.666;23.360;2023-04-24T03:00:17;8.88;;;5.97;;
77507;SDS011;66618;42.666;23.360;2023-04-24T03:02:43;11.95;;;6.68;;
77507;SDS011;66618;42.666;23.360;2023-04-24T03:05:08;11.18;;;6.22;;
77507;SDS011;66618;42.666;23.360;2023-04-24T03:07:34;11.52;;;6.07;;
77507;SDS011;66618;42.666;23.360;2023-04-24T03:10:00;10.90;;;6.90;;
77507;SDS011;66618;42.666;23.360;2023-04-24T03:12:25;10.02;;;7.03;;
77507;SDS011;66618;42.666;23.360;2023-04-24T03:14:51;11.45;;;6.72;;
77507;SDS011;66618;42.666;23.360;2023-04-24T03:17:16;10.65;;;6.47;;
77507;SDS011;66618;42.666;23.360;2023-04-24T03:19:41;8.80;;;6.60;;
77507;SDS011;66618;42.666;23.360;2023-04-24T03:22:07;9.93;;;6.50;;
77507;SDS011;66618;42.666;23.360;2023-04-24T03:24:34;11.10;;;6.80;;
77507;SDS011;66618;42.666;23.360;2023-04-24T03:26:59;13.07;;;7.38;;
77507;SDS011;66618;42.666;23.360;2023-04-24T03:29:25;11.48;;;7.45;;
77507;SDS011;66618;42.666;23.360;2023-04-24T03:31:50;10.63;;;6.47;;
77507;SDS011;66618;42.666;23.360;2023-04-24T03:34:15;11.65;;;6.72;;
77507;SDS011;66618;42.666;23.360;2023-04-24T03:36:41;11.93;;;6.68;;
77507;SDS011;66618;42.666;23.360;2023-04-24T03:39:06;11.25;;;6.75;;
77507;SDS011;66618;42.666;23.360;2023-04-24T03:41:32;10.93;;;6.00;;
77507;SDS011;66618;42.666;23.360;2023-04-24T03:43:57;9.05;;;6.30;;
77507;SDS011;66618;42.666;23.360;2023-04-24T03:46:23;10.90;;;6.80;;
77507;SDS011;66618;42.666;23.360;2023-04-24T03:48:48;13.32;;;6.63;;
77507;SDS011;66618;42.666;23.360;2023-04-24T03:51:14;11.98;;;7.10;;
77507;SDS011;66618;42.666;23.360;2023-04-24T03:53:39;9.50;;;6.50;;
77507;SDS011;66618;42.666;23.360;2023-04-24T03:56:05;12.88;;;7.00;;
77507;SDS011;66618;42.666;23.360;2023-04-24T03:58:30;10.48;;;6.35;;
77507;SDS011;66618;42.666;23.360;2023-04-24T04:00:56;10.43;;;6.93;;
77507;SDS011;66618;42.666;23.360;2023-04-24T04:03:22;14.25;;;6.88;;
77507;SDS011;66618;42.666;23.360;2023-04-24T04:05:48;14.00;;;7.30;;
77507;SDS011;66618;42.666;23.360;2023-04-24T04:08:13;9.57;;;6.95;;
77507;SDS011;66618;42.666;23.360;2023-04-24T04:10:39;9.70;;;7.00;;
77507;SDS011;66618;42.666;23.360;2023-04-24T04:13:05;9.93;;;6.82;;
77507;SDS011;66618;42.666;23.360;2023-04-24T04:15:31;11.15;;;6.45;;
77507;SDS011;66618;42.666;23.360;2023-04-24T04:17:57;11.02;;;6.88;;
77507;SDS011;66618;42.666;23.360;2023-04-24T04:20:22;11.80;;;6.13;;
77507;SDS011;66618;42.666;23.360;2023-04-24T04:22:48;8.73;;;5.82;;
77507;SDS011;66618;42.666;23.360;2023-04-24T04:25:13;8.35;;;5.25;;
77507;SDS011;66618;42.666;23.360;2023-04-24T04:27:38;9.23;;;5.38;;
77507;SDS011;66618;42.666;23.360;2023-04-24T04:30:06;8.82;;;5.57;;
77507;SDS011;66618;42.666;23.360;2023-04-24T04:32:33;6.22;;;5.10;;
77507;SDS011;66618;42.666;23.360;2023-04-24T04:35:00;11.27;;;5.75;;
77507;SDS011;66618;42.666;23.360;2023-04-24T04:37:29;9.30;;;5.32;;
77507;SDS011;66618;42.666;23.360;2023-04-24T04:39:55;11.05;;;5.75;;
77507;SDS011;66618;42.666;23.360;2023-04-24T04:42:20;7.10;;;5.50;;
77507;SDS011;66618;42.666;23.360;2023-04-24T04:44:46;6.72;;;5.60;;
77507;SDS011;66618;42.666;23.360;2023-04-24T04:47:11;9.77;;;5.20;;
77507;SDS011;66618;42.666;23.360;2023-04-24T04:49:37;8.55;;;5.90;;
77507;SDS011;66618;42.666;23.360;2023-04-24T04:52:03;6.30;;;4.85;;
77507;SDS011;66618;42.666;23.360;2023-04-24T04:54:29;7.80;;;5.22;;
77507;SDS011;66618;42.666;23.360;2023-04-24T04:56:54;8.00;;;5.05;;
77507;SDS011;66618;42.666;23.360;2023-04-24T04:59:20;9.63;;;5.28;;
77507;SDS011;66618;42.666;23.360;2023-04-24T05:01:52;7.00;;;4.82;;
77507;SDS011;66618;42.666;23.360;2023-04-24T05:04:17;7.07;;;5.32;;
77507;SDS011;66618;42.666;23.360;2023-04-24T05:06:42;8.18;;;4.63;;
77507;SDS011;66618;42.666;23.360;2023-04-24T05:09:08;8.07;;;5.00;;
77507;SDS011;66618;42.666;23.360;2023-04-24T05:11:33;9.80;;;5.43;;
77507;SDS011;66618;42.666;23.360;2023-04-24T05:13:59;7.13;;;4.82;;
77507;SDS011;66618;42.666;23.360;2023-04-24T05:16:24;7.05;;;4.75;;
77507;SDS011;66618;42.666;23.360;2023-04-24T05:18:49;8.13;;;5.22;;
77507;SDS011;66618;42.666;23.360;2023-04-24T05:21:15;6.90;;;5.05;;
77507;SDS011;66618;42.666;23.360;2023-04-24T05:23:40;6.85;;;5.25;;
77507;SDS011;66618;42.666;23.360;2023-04-24T05:26:06;9.48;;;5.38;;
77507;SDS011;66618;42.666;23.360;2023-04-24T05:28:31;7.63;;;5.50;;
77507;SDS011;66618;42.666;23.360;2023-04-24T05:30:57;6.95;;;5.00;;
77507;SDS011;66618;42.666;23.360;2023-04-24T05:33:24;13.32;;;5.40;;
77507;SDS011;66618;42.666;23.360;2023-04-24T05:35:49;9.25;;;5.50;;
77507;SDS011;66618;42.666;23.360;2023-04-24T05:38:15;12.23;;;6.30;;
77507;SDS011;66618;42.666;23.360;2023-04-24T05:40:42;7.20;;;5.07;;
77507;SDS011;66618;42.666;23.360;2023-04-24T05:43:08;7.88;;;5.88;;
77507;SDS011;66618;42.666;23.360;2023-04-24T05:45:33;9.45;;;6.13;;
77507;SDS011;66618;42.666;23.360;2023-04-24T05:48:01;10.52;;;6.90;;
77507;SDS011;66618;42.666;23.360;2023-04-24T05:50:26;10.05;;;6.15;;
77507;SDS011;66618;42.666;23.360;2023-04-24T05:52:52;9.55;;;6.18;;
77507;SDS011;66618;42.666;23.360;2023-04-24T05:55:18;8.48;;;5.85;;
77507;SDS011;66618;42.666;23.360;2023-04-24T05:57:43;12.15;;;6.15;;
77507;SDS011;66618;42.666;23.360;2023-04-24T06:00:09;9.52;;;5.95;;
77507;SDS011;66618;42.666;23.360;2023-04-24T06:02:37;10.70;;;5.85;;
77507;SDS011;66618;42.666;23.360;2023-04-24T06:05:03;9.85;;;6.20;;
77507;SDS011;66618;42.666;23.360;2023-04-24T06:07:29;10.90;;;6.32;;
77507;SDS011;66618;42.666;23.360;2023-04-24T06:09:55;11.68;;;6.43;;
77507;SDS011;66618;42.666;23.360;2023-04-24T06:12:21;10.63;;;6.38;;
77507;SDS011;66618;42.666;23.360;2023-04-24T06:14:47;9.88;;;6.30;;
77507;SDS011;66618;42.666;23.360;2023-04-24T06:17:13;12.73;;;6.70;;
77507;SDS011;66618;42.666;23.360;2023-04-24T06:19:38;11.40;;;7.10;;
77507;SDS011;66618;42.666;23.360;2023-04-24T06:22:04;8.48;;;7.03;;
77507;SDS011;66618;42.666;23.360;2023-04-24T06:24:29;12.80;;;7.10;;
77507;SDS011;66618;42.666;23.360;2023-04-24T06:26:55;7.97;;;6.60;;
77507;SDS011;66618;42.666;23.360;2023-04-24T06:29:22;9.40;;;6.70;;
77507;SDS011;66618;42.666;23.360;2023-04-24T06:31:47;9.98;;;6.55;;
77507;SDS011;66618;42.666;23.360;2023-04-24T06:34:13;13.88;;;6.85;;
77507;SDS011;66618;42.666;23.360;2023-04-24T06:36:38;10.75;;;6.70;;
77507;SDS011;66618;42.666;23.360;2023-04-24T06:39:03;8.23;;;6.53;;
77507;SDS011;66618;42.666;23.360;2023-04-24T06:41:29;8.23;;;6.10;;
77507;SDS011;66618;42.666;23.360;2023-04-24T06:43:54;9.43;;;6.03;;
77507;SDS011;66618;42.666;23.360;2023-04-24T06:46:20;11.65;;;6.50;;
77507;SDS011;66618;42.666;23.360;2023-04-24T06:48:48;10.98;;;6.93;;
77507;SDS011;66618;42.666;23.360;2023-04-24T06:51:15;13.07;;;7.63;;
77507;SDS011;66618;42.666;23.360;2023-04-24T06:53:40;11.32;;;7.38;;
77507;SDS011;66618;42.666;23.360;2023-04-24T06:56:05;10.55;;;7.38;;
77507;SDS011;66618;42.666;23.360;2023-04-24T06:58:31;10.88;;;6.65;;
77507;SDS011;66618;42.666;23.360;2023-04-24T07:00:56;10.82;;;7.30;;
77507;SDS011;66618;42.666;23.360;2023-04-24T07:03:21;11.10;;;7.15;;
77507;SDS011;66618;42.666;23.360;2023-04-24T07:05:47;11.52;;;6.80;;
77507;SDS011;66618;42.666;23.360;2023-04-24T07:08:14;14.93;;;7.22;;
77507;SDS011;66618;42.666;23.360;2023-04-24T07:10:41;12.25;;;7.07;;
77507;SDS011;66618;42.666;23.360;2023-04-24T07:13:07;11.90;;;7.32;;
77507;SDS011;66618;42.666;23.360;2023-04-24T07:15:33;10.25;;;7.05;;
77507;SDS011;66618;42.666;23.360;2023-04-24T07:17:59;11.27;;;7.38;;
77507;SDS011;66618;42.666;23.360;2023-04-24T07:20:24;11.45;;;7.40;;
77507;SDS011;66618;42.666;23.360;2023-04-24T07:22:50;12.43;;;7.55;;
77507;SDS011;66618;42.666;23.360;2023-04-24T07:25:16;10.85;;;7.00;;
77507;SDS011;66618;42.666;23.360;2023-04-24T07:27:42;11.40;;;7.30;;
77507;SDS011;66618;42.666;23.360;2023-04-24T07:30:08;9.38;;;6.57;;
77507;SDS011;66618;42.666;23.360;2023-04-24T07:32:33;8.88;;;6.57;;
77507;SDS011;66618;42.666;23.360;2023-04-24T07:35:00;7.28;;;5.80;;
77507;SDS011;66618;42.666;23.360;2023-04-24T07:37:25;8.48;;;6.07;;
77507;SDS011;66618;42.666;23.360;2023-04-24T07:39:51;9.13;;;6.00;;
77507;SDS011;66618;42.666;23.360;2023-04-24T07:42:16;8.82;;;6.22;;
77507;SDS011;66618;42.666;23.360;2023-04-24T07:44:42;9.10;;;6.15;;
77507;SDS011;66618;42.666;23.360;2023-04-24T07:47:07;7.75;;;6.28;;
77507;SDS011;66618;42.666;23.360;2023-04-24T07:49:33;6.68;;;5.65;;
77507;SDS011;66618;42.666;23.360;2023-04-24T07:51:59;11.68;;;6.18;;
77507;SDS011;66618;42.666;23.360;2023-04-24T07:54:26;7.72;;;5.35;;
77507;SDS011;66618;42.666;23.360;2023-04-24T07:56:52;9.88;;;6.28;;
77507;SDS011;66618;42.666;23.360;2023-04-24T07:59:17;11.18;;;6.93;;
77507;SDS011;66618;42.666;23.360;2023-04-24T08:01:42;10.35;;;6.28;;
77507;SDS011;66618;42.666;23.360;2023-04-24T08:04:08;12.20;;;6.53;;
77507;SDS011;66618;42.666;23.360;2023-04-24T08:06:33;8.02;;;6.50;;
77507;SDS011;66618;42.666;23.360;2023-04-24T08:08:59;10.50;;;6.10;;
77507;SDS011;66618;42.666;23.360;2023-04-24T08:11:25;7.78;;;5.45;;
77507;SDS011;66618;42.666;23.360;2023-04-24T08:13:50;8.40;;;5.85;;
77507;SDS011;66618;42.666;23.360;2023-04-24T08:16:16;9.93;;;5.55;;
77507;SDS011;66618;42.666;23.360;2023-04-24T08:18:41;8.48;;;6.22;;
77507;SDS011;66618;42.666;23.360;2023-04-24T08:21:06;8.45;;;5.93;;
77507;SDS011;66618;42.666;23.360;2023-04-24T08:23:32;8.50;;;6.55;;
77507;SDS011;66618;42.666;23.360;2023-04-24T08:25:57;9.57;;;6.00;;
77507;SDS011;66618;42.666;23.360;2023-04-24T08:28:23;8.13;;;5.60;;
77507;SDS011;66618;42.666;23.360;2023-04-24T08:30:48;9.77;;;6.05;;
77507;SDS011;66618;42.666;23.360;2023-04-24T08:33:19;7.28;;;6.05;;
77507;SDS011;66618;42.666;23.360;2023-04-24T08:35:45;7.15;;;5.30;;
77507;SDS011;66618;42.666;23.360;2023-04-24T08:38:10;8.50;;;5.38;;
77507;SDS011;66618;42.666;23.360;2023-04-24T08:40:36;8.98;;;5.30;;
77507;SDS011;66618;42.666;23.360;2023-04-24T08:43:02;8.00;;;5.13;;
77507;SDS011;66618;42.666;23.360;2023-04-24T08:45:28;9.77;;;4.70;;
77507;SDS011;66618;42.666;23.360;2023-04-24T08:47:54;6.47;;;5.45;;
77507;SDS011;66618;42.666;23.360;2023-04-24T08:50:20;7.43;;;5.15;;
77507;SDS011;66618;42.666;23.360;2023-04-24T08:52:47;8.15;;;5.28;;
77507;SDS011;66618;42.666;23.360;2023-04-24T08:55:13;6.97;;;5.22;;
77507;SDS011;66618;42.666;23.360;2023-04-24T08:57:39;7.55;;;5.03;;
77507;SDS011;66618;42.666;23.360;2023-04-24T09:00:05;7.22;;;5.25;;
77507;SDS011;66618;42.666;23.360;2023-04-24T09:02:31;7.05;;;5.10;;
77507;SDS011;66618;42.666;23.360;2023-04-24T09:04:59;7.40;;;5.65;;
77507;SDS011;66618;42.666;23.360;2023-04-24T09:07:24;6.18;;;4.40;;
77507;SDS011;66618;42.666;23.360;2023-04-24T09:09:52;6.00;;;4.10;;
77507;SDS011;66618;42.666;23.360;2023-04-24T09:12:18;5.32;;;4.82;;
77507;SDS011;66618;42.666;23.360;2023-04-24T09:14:44;7.75;;;4.97;;
77507;SDS011;66618;42.666;23.360;2023-04-24T09:17:10;6.13;;;4.95;;
77507;SDS011;66618;42.666;23.360;2023-04-24T09:19:36;8.45;;;4.70;;
77507;SDS011;66618;42.666;23.360;2023-04-24T09:22:04;7.13;;;4.70;;
77507;SDS011;66618;42.666;23.360;2023-04-24T09:24:31;5.95;;;4.55;;
77507;SDS011;66618;42.666;23.360;2023-04-24T09:26:57;6.03;;;4.75;;
77507;SDS011;66618;42.666;23.360;2023-04-24T09:29:23;5.97;;;4.70;;
77507;SDS011;66618;42.666;23.360;2023-04-24T09:31:49;8.63;;;5.10;;
77507;SDS011;66618;42.666;23.360;2023-04-24T09:34:18;8.27;;;4.65;;
77507;SDS011;66618;42.666;23.360;2023-04-24T09:36:50;9.80;;;5.22;;
77507;SDS011;66618;42.666;23.360;2023-04-24T09:39:16;9.43;;;4.95;;
77507;SDS011;66618;42.666;23.360;2023-04-24T09:41:53;6.00;;;5.20;;
77507;SDS011;66618;42.666;23.360;2023-04-24T09:44:26;5.95;;;4.63;;
77507;SDS011;66618;42.666;23.360;2023-04-24T09:46:53;8.02;;;4.60;;
77507;SDS011;66618;42.666;23.360;2023-04-24T09:49:24;8.20;;;4.70;;
77507;SDS011;66618;42.666;23.360;2023-04-24T09:51:50;7.40;;;4.85;;
77507;SDS011;66618;42.666;23.360;2023-04-24T09:54:20;5.80;;;5.18;;
77507;SDS011;66618;42.666;23.360;2023-04-24T09:56:47;6.90;;;4.82;;
77507;SDS011;66618;42.666;23.360;2023-04-24T09:59:14;6.00;;;4.65;;
77507;SDS011;66618;42.666;23.360;2023-04-24T10:01:41;6.85;;;4.70;;
77507;SDS011;66618;42.666;23.360;2023-04-24T10:04:16;6.10;;;4.90;;
77507;SDS011;66618;42.666;23.360;2023-04-24T10:06:42;6.63;;;5.30;;
77507;SDS011;66618;42.666;23.360;2023-04-24T10:09:08;5.55;;;4.25;;
77507;SDS011;66618;42.666;23.360;2023-04-24T10:11:36;6.82;;;4.50;;
77507;SDS011;66618;42.666;23.360;2023-04-24T10:14:02;5.63;;;4.22;;
77507;SDS011;66618;42.666;23.360;2023-04-24T10:16:27;8.82;;;5.35;;
77507;SDS011;66618;42.666;23.360;2023-04-24T10:18:53;4.82;;;4.10;;
77507;SDS011;66618;42.666;23.360;2023-04-24T10:21:19;6.00;;;4.75;;
77507;SDS011;66618;42.666;23.360;2023-04-24T10:23:45;5.22;;;4.70;;
77507;SDS011;66618;42.666;23.360;2023-04-24T10:26:14;7.55;;;4.57;;
77507;SDS011;66618;42.666;23.360;2023-04-24T10:28:44;5.55;;;4.35;;
77507;SDS011;66618;42.666;23.360;2023-04-24T10:31:10;6.78;;;4.72;;
77507;SDS011;66618;42.666;23.360;2023-04-24T10:33:36;7.85;;;4.22;;
77507;SDS011;66618;42.666;23.360;2023-04-24T10:36:03;7.35;;;4.03;;
77507;SDS011;66618;42.666;23.360;2023-04-24T10:38:29;6.13;;;4.68;;
77507;SDS011;66618;42.666;23.360;2023-04-24T10:41:11;5.30;;;3.67;;
77507;SDS011;66618;42.666;23.360;2023-04-24T10:43:45;10.27;;;4.00;;
77507;SDS011;66618;42.666;23.360;2023-04-24T10:46:16;6.25;;;4.38;;
77507;SDS011;66618;42.666;23.360;2023-04-24T10:51:11;7.22;;;3.72;;
77507;SDS011;66618;42.666;23.360;2023-04-24T10:53:39;7.13;;;4.68;;
77507;SDS011;66618;42.666;23.360;2023-04-24T10:56:05;8.45;;;4.60;;
77507;SDS011;66618;42.666;23.360;2023-04-24T10:58:39;12.05;;;4.55;;
77507;SDS011;66618;42.666;23.360;2023-04-24T11:01:08;8.52;;;4.38;;
77507;SDS011;66618;42.666;23.360;2023-04-24T11:03:34;5.05;;;3.58;;
77507;SDS011;66618;42.666;23.360;2023-04-24T11:08:38;5.20;;;4.00;;
77507;SDS011;66618;42.666;23.360;2023-04-24T11:11:14;5.00;;;4.05;;
77507;SDS011;66618;42.666;23.360;2023-04-24T11:26:54;4.25;;;3.75;;
77507;SDS011;66618;42.666;23.360;2023-04-24T11:29:20;4.90;;;4.00;;
77507;SDS011;66618;42.666;23.360;2023-04-24T11:31:46;6.93;;;4.45;;
77507;SDS011;66618;42.666;23.360;2023-04-24T11:34:14;3.55;;;3.00;;
77507;SDS011;66618;42.666;23.360;2023-04-24T11:36:47;6.22;;;3.90;;
77507;SDS011;66618;42.666;23.360;2023-04-24T11:39:13;4.90;;;3.80;;
77507;SDS011;66618;42.666;23.360;2023-04-24T11:41:39;5.60;;;3.70;;
77507;SDS011;66618;42.666;23.360;2023-04-24T11:44:09;5.25;;;3.60;;
77507;SDS011;66618;42.666;23.360;2023-04-24T11:46:35;5.80;;;3.35;;
77507;SDS011;66618;42.666;23.360;2023-04-24T11:49:02;6.55;;;3.42;;
77507;SDS011;66618;42.666;23.360;2023-04-24T11:51:28;4.63;;;3.05;;
77507;SDS011;66618;42.666;23.360;2023-04-24T11:53:54;4.93;;;3.75;;
77507;SDS011;66618;42.666;23.360;2023-04-24T11:56:23;4.43;;;4.03;;
77507;SDS011;66618;42.666;23.360;2023-04-24T11:58:51;5.72;;;4.40;;
77507;SDS011;66618;42.666;23.360;2023-04-24T12:01:18;5.88;;;3.67;;
77507;SDS011;66618;42.666;23.360;2023-04-24T12:03:47;4.60;;;3.53;;
77507;SDS011;66618;42.666;23.360;2023-04-24T12:06:13;6.55;;;3.47;;
77507;SDS011;66618;42.666;23.360;2023-04-24T12:08:38;4.15;;;3.78;;
77507;SDS011;66618;42.666;23.360;2023-04-24T12:11:05;6.53;;;3.67;;
77507;SDS011;66618;42.666;23.360;2023-04-24T12:13:32;5.10;;;3.88;;
77507;SDS011;66618;42.666;23.360;2023-04-24T12:15:58;5.93;;;4.00;;
77507;SDS011;66618;42.666;23.360;2023-04-24T12:18:23;4.78;;;4.35;;
77507;SDS011;66618;42.666;23.360;2023-04-24T12:20:49;4.43;;;3.83;;
77507;SDS011;66618;42.666;23.360;2023-04-24T12:23:15;5.78;;;4.32;;
77507;SDS011;66618;42.666;23.360;2023-04-24T12:25:40;4.85;;;3.95;;
77507;SDS011;66618;42.666;23.360;2023-04-24T12:30:38;4.47;;;3.80;;
77507;SDS011;66618;42.666;23.360;2023-04-24T12:33:17;2.80;;;2.60;;
77507;SDS011;66618;42.666;23.360;2023-04-24T12:35:43;3.00;;;2.70;;
77507;SDS011;66618;42.666;23.360;2023-04-24T12:38:09;3.88;;;2.85;;
77507;SDS011;66618;42.666;23.360;2023-04-24T12:40:37;4.53;;;3.10;;
77507;SDS011;66618;42.666;23.360;2023-04-24T12:43:12;3.42;;;3.13;;
77507;SDS011;66618;42.666;23.360;2023-04-24T12:45:39;5.25;;;3.30;;
77507;SDS011;66618;42.666;23.360;2023-04-24T12:48:04;5.28;;;3.72;;
77507;SDS011;66618;42.666;23.360;2023-04-24T12:50:30;4.80;;;3.70;;
77507;SDS011;66618;42.666;23.360;2023-04-24T12:52:55;5.38;;;3.75;;
77507;SDS011;66618;42.666;23.360;2023-04-24T12:55:21;5.35;;;3.60;;
77507;SDS011;66618;42.666;23.360;2023-04-24T12:57:46;5.40;;;3.80;;
77507;SDS011;66618;42.666;23.360;2023-04-24T13:00:11;5.72;;;3.70;;
77507;SDS011;66618;42.666;23.360;2023-04-24T13:02:37;4.32;;;3.55;;
77507;SDS011;66618;42.666;23.360;2023-04-24T13:05:03;4.28;;;3.67;;
77507;SDS011;66618;42.666;23.360;2023-04-24T13:07:29;5.45;;;3.90;;
77507;SDS011;66618;42.666;23.360;2023-04-24T13:09:55;7.47;;;3.85;;
77507;SDS011;66618;42.666;23.360;2023-04-24T13:12:21;5.03;;;3.90;;
77507;SDS011;66618;42.666;23.360;2023-04-24T13:14:48;6.32;;;4.40;;
77507;SDS011;66618;42.666;23.360;2023-04-24T13:17:14;6.00;;;3.97;;
77507;SDS011;66618;42.666;23.360;2023-04-24T13:19:40;6.35;;;4.32;;
77507;SDS011;66618;42.666;23.360;2023-04-24T13:22:08;4.82;;;3.47;;
77507;SDS011;66618;42.666;23.360;2023-04-24T13:24:34;4.15;;;3.20;;
77507;SDS011;66618;42.666;23.360;2023-04-24T13:27:00;6.35;;;3.22;;
77507;SDS011;66618;42.666;23.360;2023-04-24T13:29:26;4.80;;;3.85;;
77507;SDS011;66618;42.666;23.360;2023-04-24T13:31:52;4.20;;;3.47;;
77507;SDS011;66618;42.666;23.360;2023-04-24T13:34:21;4.75;;;4.25;;
77507;SDS011;66618;42.666;23.360;2023-04-24T13:36:47;8.85;;;3.80;;
77507;SDS011;66618;42.666;23.360;2023-04-24T13:39:13;5.95;;;4.32;;
77507;SDS011;66618;42.666;23.360;2023-04-24T13:41:39;5.20;;;3.60;;
77507;SDS011;66618;42.666;23.360;2023-04-24T13:44:05;5.57;;;5.07;;
77507;SDS011;66618;42.666;23.360;2023-04-24T13:46:31;5.95;;;4.35;;
77507;SDS011;66618;42.666;23.360;2023-04-24T13:48:57;5.82;;;3.88;;
77507;SDS011;66618;42.666;23.360;2023-04-24T13:51:23;4.75;;;4.35;;
77507;SDS011;66618;42.666;23.360;2023-04-24T13:53:51;5.32;;;4.20;;
77507;SDS011;66618;42.666;23.360;2023-04-24T13:56:17;5.78;;;4.15;;
77507;SDS011;66618;42.666;23.360;2023-04-24T13:58:42;4.13;;;3.17;;
77507;SDS011;66618;42.666;23.360;2023-04-24T14:01:08;4.53;;;3.67;;
77507;SDS011;66618;42.666;23.360;2023-04-24T14:03:33;5.88;;;4.07;;
77507;SDS011;66618;42.666;23.360;2023-04-24T14:05:59;6.20;;;3.92;;
77507;SDS011;66618;42.666;23.360;2023-04-24T14:08:24;5.85;;;4.32;;
77507;SDS011;66618;42.666;23.360;2023-04-24T14:10:50;5.93;;;4.50;;
77507;SDS011;66618;42.666;23.360;2023-04-24T14:13:15;4.88;;;4.25;;
77507;SDS011;66618;42.666;23.360;2023-04-24T14:15:41;4.95;;;3.90;;
77507;SDS011;66618;42.666;23.360;2023-04-24T14:18:06;6.07;;;4.57;;
77507;SDS011;66618;42.666;23.360;2023-04-24T14:20:32;4.85;;;3.40;;
77507;SDS011;66618;42.666;23.360;2023-04-24T14:22:57;5.10;;;4.00;;
77507;SDS011;66618;42.666;23.360;2023-04-24T14:25:24;5.03;;;3.78;;
77507;SDS011;66618;42.666;23.360;2023-04-24T14:27:49;5.53;;;3.75;;
77507;SDS011;66618;42.666;23.360;2023-04-24T14:30:15;3.70;;;3.15;;
77507;SDS011;66618;42.666;23.360;2023-04-24T14:32:41;4.80;;;2.92;;
77507;SDS011;66618;42.666;23.360;2023-04-24T14:35:06;4.20;;;3.08;;
77507;SDS011;66618;42.666;23.360;2023-04-24T14:37:32;4.63;;;3.53;;
77507;SDS011;66618;42.666;23.360;2023-04-24T14:39:57;3.53;;;2.95;;
77507;SDS011;66618;42.666;23.360;2023-04-24T14:42:23;4.82;;;3.28;;
77507;SDS011;66618;42.666;23.360;2023-04-24T14:44:48;4.70;;;2.97;;